Time;durP1;ratioP1;P1;durP2;ratioP2;P2;SDS_P1;SDS_P2;PMS_P1;PMS_P2;Temp;Humidity;BMP_temperature;BMP_pressure;BME280_temperature;BME280_humidity;BME280_pressure;Samples;Min_cycle;Max_cycle;Signal;HPM_P1;HPM_P2
2022/07/01 00:00:25;;;;;;;1.02;0.43;;;;;;;24.60;34.01;100075.72;4900192;29;20080;-85
2022/07/01 00:02:51;;;;;;;3.00;0.52;;;;;;;24.46;33.83;100074.56;4898679;29;20033;-88
2022/07/01 00:05:16;;;;;;;3.30;0.68;;;;;;;24.30;35.26;100080.16;4897493;29;20045;-86
2022/07/01 00:07:46;;;;;;;1.58;0.40;;;;;;;24.19;35.65;100074.69;4902514;29;20398;-89
2022/07/01 00:10:30;;;;;;;2.83;0.85;;;;;;;24.22;35.58;100072.56;4903853;29;20103;-85
2022/07/01 00:12:59;;;;;;;6.35;0.60;;;;;;;24.21;36.42;100081.75;4903455;28;20056;-87
2022/07/01 00:15:24;;;;;;;1.50;0.73;;;;;;;24.29;36.52;100082.09;4901951;29;20041;-85
2022/07/01 00:17:50;;;;;;;3.22;0.70;;;;;;;24.34;36.35;100076.69;4900888;28;20422;-87
2022/07/01 00:20:16;;;;;;;0.70;0.40;;;;;;;24.44;36.36;100075.91;4907270;29;20037;-87
2022/07/01 00:22:41;;;;;;;1.83;0.60;;;;;;;24.31;36.90;100079.09;4906662;29;20037;-84
2022/07/01 00:25:08;;;;;;;1.23;0.60;;;;;;;24.18;37.30;100074.97;4901514;29;20041;-85
2022/07/01 00:27:38;;;;;;;2.40;0.45;;;;;;;24.22;36.93;100069.84;4902401;29;20041;-85
2022/07/01 00:30:04;;;;;;;4.57;0.73;;;;;;;24.07;36.97;100060.50;4901015;29;20132;-85
2022/07/01 00:32:30;;;;;;;2.30;0.65;;;;;;;23.93;36.67;100064.75;4901627;28;20041;-85
2022/07/01 00:34:55;;;;;;;2.47;0.73;;;;;;;24.00;36.40;100059.91;4901080;29;20091;-86
2022/07/01 00:37:21;;;;;;;2.10;0.70;;;;;;;23.98;36.90;100051.25;4900941;29;20048;-87
2022/07/01 00:39:46;;;;;;;2.47;0.60;;;;;;;23.96;37.07;100058.81;4900709;29;20068;-84
2022/07/01 00:42:12;;;;;;;3.13;0.60;;;;;;;24.05;36.23;100045.63;4900650;29;20039;-84
2022/07/01 00:44:37;;;;;;;2.05;0.70;;;;;;;23.94;36.94;100050.13;4908922;28;20024;-85
2022/07/01 00:47:10;;;;;;;2.65;0.55;;;;;;;23.83;37.79;100053.06;4918507;29;20063;-84
2022/07/01 00:49:37;;;;;;;2.72;0.68;;;;;;;23.93;36.74;100051.22;4919453;29;20109;-86
2022/07/01 00:52:05;;;;;;;2.85;0.50;;;;;;;23.99;36.75;100047.47;4918953;29;20029;-85
2022/07/01 00:54:34;;;;;;;1.95;0.70;;;;;;;24.01;37.40;100049.91;4918109;28;20100;-84
2022/07/01 00:57:00;;;;;;;2.50;0.60;;;;;;;24.04;37.20;100060.22;4918541;29;20047;-85
2022/07/01 00:59:25;;;;;;;2.20;0.77;;;;;;;24.21;37.33;100054.66;4918818;29;20021;-84
2022/07/01 01:01:51;;;;;;;2.65;0.50;;;;;;;24.05;37.46;100062.69;4918435;29;20067;-85
2022/07/01 01:04:16;;;;;;;1.75;0.60;;;;;;;23.88;36.31;100072.84;4918323;28;20032;-86
2022/07/01 01:06:42;;;;;;;4.05;0.70;;;;;;;23.92;36.24;100078.56;4918528;29;20033;-87
2022/07/01 01:09:08;;;;;;;1.98;0.70;;;;;;;23.85;37.52;100089.59;4918996;29;20093;-86
2022/07/01 01:11:42;;;;;;;5.30;0.63;;;;;;;23.79;38.46;100085.22;4918441;29;20047;-86
2022/07/01 01:14:07;;;;;;;4.88;0.70;;;;;;;23.67;38.92;100087.28;4918741;29;20032;-83
2022/07/01 01:16:35;;;;;;;5.10;0.60;;;;;;;23.59;39.25;100072.38;4917969;29;20048;-84
2022/07/01 01:19:04;;;;;;;2.50;0.90;;;;;;;23.52;39.40;100082.56;4916168;29;20120;-83
2022/07/01 01:21:30;;;;;;;1.88;0.70;;;;;;;23.52;39.19;100082.56;4910004;29;20063;-85
2022/07/01 01:23:59;;;;;;;2.63;0.80;;;;;;;23.51;39.69;100082.81;4909326;29;20104;-83
2022/07/01 01:26:50;;;;;;;5.18;1.30;;;;;;;23.28;40.31;100086.63;4913079;28;20038;-85
2022/07/01 01:29:17;;;;;;;3.47;1.15;;;;;;;23.17;40.25;100088.41;4914727;28;20048;-84
2022/07/01 01:31:44;;;;;;;4.18;1.10;;;;;;;23.08;40.89;100079.13;4887465;28;20049;-87
2022/07/01 01:34:13;;;;;;;2.08;1.05;;;;;;;23.01;40.45;100083.94;4896567;29;20040;-85
2022/07/01 01:36:39;;;;;;;3.92;1.00;;;;;;;23.06;39.57;100086.69;4897332;29;20541;-83
2022/07/01 01:39:16;;;;;;;7.20;0.90;;;;;;;23.23;38.98;100092.00;4898659;29;20414;-85
2022/07/01 01:41:45;;;;;;;1.50;0.80;;;;;;;23.41;38.16;100082.72;4899574;29;20043;-87
2022/07/01 01:44:11;;;;;;;3.03;1.20;;;;;;;23.51;39.90;100091.75;4899557;29;20530;-86
2022/07/01 01:46:37;;;;;;;1.85;0.90;;;;;;;23.53;39.89;100094.22;4899944;29;20068;-85
2022/07/01 01:49:06;;;;;;;2.17;0.70;;;;;;;23.52;40.15;100098.81;4899345;29;20528;-85
2022/07/01 01:51:32;;;;;;;3.60;1.10;;;;;;;23.63;39.92;100113.25;4899631;29;20029;-84
2022/07/01 01:53:58;;;;;;;3.08;1.02;;;;;;;23.53;40.33;100108.53;4899357;29;20471;-84
2022/07/01 01:56:24;;;;;;;4.38;1.27;;;;;;;23.64;39.77;100114.84;4897821;29;20099;-83
2022/07/01 01:58:50;;;;;;;2.97;0.73;;;;;;;23.63;40.36;100103.22;4899512;29;20029;-85
2022/07/01 02:01:17;;;;;;;1.83;0.93;;;;;;;23.58;40.09;100118.59;4901527;29;20036;-84
2022/07/01 02:03:44;;;;;;;6.88;1.23;;;;;;;23.44;40.62;100114.66;4900097;29;20041;-84
2022/07/01 02:06:11;;;;;;;3.40;1.02;;;;;;;23.41;41.39;100123.28;4897823;29;20128;-85
2022/07/01 02:08:38;;;;;;;11.25;0.98;;;;;;;23.40;41.30;100117.06;4898085;28;20044;-85
2022/07/01 02:11:04;;;;;;;3.20;1.08;;;;;;;23.36;41.68;100115.13;4898926;29;20410;-85
2022/07/01 02:13:30;;;;;;;5.03;1.05;;;;;;;23.20;43.01;100111.41;4899470;29;20036;-84
2022/07/01 02:15:56;;;;;;;2.78;1.17;;;;;;;23.10;43.33;100103.22;4899024;29;20128;-86
2022/07/01 02:18:22;;;;;;;5.15;1.27;;;;;;;22.97;43.95;100099.00;4898789;29;20041;-85
2022/07/01 02:20:48;;;;;;;1.52;0.90;;;;;;;23.02;44.28;100099.09;4899399;29;20040;-85
2022/07/01 02:23:14;;;;;;;4.45;1.30;;;;;;;23.00;44.48;100097.72;4898430;29;20037;-84
2022/07/01 02:25:40;;;;;;;7.82;1.38;;;;;;;22.93;44.94;100105.19;4898476;29;20044;-88
2022/07/01 02:28:07;;;;;;;2.75;1.02;;;;;;;22.98;44.66;100106.06;4897544;29;20099;-85
2022/07/01 02:30:36;;;;;;;5.63;1.50;;;;;;;23.12;44.94;100104.59;4898938;29;20091;-84
2022/07/01 02:33:02;;;;;;;5.57;0.85;;;;;;;22.97;45.05;100098.19;4898473;29;20028;-85
2022/07/01 02:35:29;;;;;;;8.60;1.40;;;;;;;22.82;45.20;100101.56;4898684;29;20048;-86
2022/07/01 02:37:55;;;;;;;2.88;0.90;;;;;;;22.70;44.83;100103.56;4898626;29;20041;-83
2022/07/01 02:40:21;;;;;;;6.63;1.27;;;;;;;22.49;46.18;100107.03;4898588;29;20064;-83
2022/07/01 02:42:49;;;;;;;3.35;0.98;;;;;;;22.47;46.12;100103.78;4898571;29;20063;-84
2022/07/01 02:45:15;;;;;;;6.13;1.10;;;;;;;22.21;47.45;100104.47;4896793;28;20099;-83
2022/07/01 02:47:41;;;;;;;7.13;1.27;;;;;;;22.19;47.79;100103.91;4898172;29;20029;-87
2022/07/01 02:50:09;;;;;;;3.85;1.00;;;;;;;21.96;48.09;100102.22;4897879;29;20040;-87
2022/07/01 02:52:36;;;;;;;4.25;1.38;;;;;;;21.95;48.34;100111.38;4896963;28;20044;-84
2022/07/01 02:55:04;;;;;;;4.07;1.17;;;;;;;21.91;48.58;100112.91;4898265;29;20032;-86
2022/07/01 02:57:30;;;;;;;1.80;1.02;;;;;;;21.81;48.80;100116.25;4897770;29;20557;-84
2022/07/01 02:59:55;;;;;;;4.40;1.08;;;;;;;21.64;49.08;100115.44;4896605;29;20147;-84
2022/07/01 03:02:21;;;;;;;3.78;1.10;;;;;;;21.44;49.52;100107.00;4898227;29;20040;-86
2022/07/01 03:04:49;;;;;;;2.45;1.10;;;;;;;21.44;49.56;100109.69;4898670;29;20037;-86
2022/07/01 03:07:16;;;;;;;4.53;1.00;;;;;;;21.54;49.42;100109.88;4897968;29;20041;-85
2022/07/01 03:09:43;;;;;;;2.28;0.90;;;;;;;21.42;49.57;100120.72;4900750;29;20041;-87
2022/07/01 03:12:24;;;;;;;1.88;1.05;;;;;;;21.49;49.43;100112.47;4900445;29;20068;-86
2022/07/01 03:15:01;;;;;;;3.42;1.00;;;;;;;21.46;49.64;100121.88;4920969;29;20071;-83
2022/07/01 03:17:28;;;;;;;3.28;1.13;;;;;;;21.29;49.52;100106.72;4920090;29;20029;-83
2022/07/01 03:19:54;;;;;;;4.15;0.80;;;;;;;21.23;49.55;100113.06;4916692;29;20126;-84
2022/07/01 03:22:21;;;;;;;1.40;0.85;;;;;;;21.26;50.17;100112.59;4917412;29;20093;-84
2022/07/01 03:24:47;;;;;;;2.53;1.10;;;;;;;21.26;49.53;100110.72;4917996;29;20072;-86
2022/07/01 03:27:13;;;;;;;6.30;0.93;;;;;;;21.24;49.17;100114.72;4902834;29;20044;-87
2022/07/01 03:29:39;;;;;;;1.30;0.70;;;;;;;21.45;48.95;100111.31;4899089;29;20082;-84
2022/07/01 03:32:05;;;;;;;7.55;1.20;;;;;;;21.34;48.99;100110.34;4898461;29;20040;-86
2022/07/01 03:34:31;;;;;;;3.40;0.95;;;;;;;21.34;48.69;100104.13;4896682;28;20048;-86
2022/07/01 03:37:00;;;;;;;2.35;1.02;;;;;;;21.39;48.61;100105.03;4896477;28;20129;-85
2022/07/01 03:39:25;;;;;;;1.35;0.77;;;;;;;21.30;49.60;100093.00;4897532;28;20060;-86
2022/07/01 03:41:51;;;;;;;6.57;0.90;;;;;;;21.46;49.04;100088.69;4896562;29;20434;-83
2022/07/01 03:44:16;;;;;;;7.35;0.90;;;;;;;21.29;49.83;100085.16;4897536;29;20493;-86
2022/07/01 03:46:45;;;;;;;2.75;1.17;;;;;;;21.24;49.90;100085.06;4897200;28;20478;-85
2022/07/01 03:49:11;;;;;;;5.10;0.90;;;;;;;21.34;49.56;100071.78;4896505;29;20197;-83
2022/07/01 03:51:36;;;;;;;5.07;1.10;;;;;;;21.31;49.56;100083.03;4897311;29;20139;-86
2022/07/01 03:56:47;;;;;;;3.72;1.05;;;;;;;21.30;48.81;100076.00;4895829;28;20041;-85
2022/07/01 03:59:12;;;;;;;3.38;0.85;;;;;;;21.32;49.17;100081.97;4896534;29;20091;-86
2022/07/01 04:01:38;;;;;;;3.17;0.90;;;;;;;21.29;49.25;100085.16;4896211;29;20040;-84
2022/07/01 04:04:04;;;;;;;6.45;1.00;;;;;;;21.24;49.64;100076.97;4896899;29;20025;-85
2022/07/01 04:06:30;;;;;;;5.88;1.17;;;;;;;21.21;48.82;100078.28;4896575;29;20052;-85
2022/07/01 04:08:59;;;;;;;2.53;1.00;;;;;;;21.33;48.84;100086.31;4896356;29;20029;-88
2022/07/01 04:11:25;;;;;;;4.03;1.15;;;;;;;21.51;48.08;100094.19;4898954;29;20489;-84
2022/07/01 04:13:51;;;;;;;2.00;1.02;;;;;;;21.32;49.78;100090.03;4897390;29;20096;-83
2022/07/01 04:16:20;;;;;;;3.47;1.10;;;;;;;21.24;49.63;100090.47;4898177;29;20088;-81
2022/07/01 04:18:46;;;;;;;4.05;0.88;;;;;;;21.12;50.02;100091.31;4896890;29;20172;-80
2022/07/01 04:23:59;;;;;;;4.45;1.02;;;;;;;21.34;49.65;100083.38;4897285;28;20044;-79
2022/07/01 04:26:25;;;;;;;3.10;1.30;;;;;;;21.48;49.14;100081.16;4895452;29;20126;-79
2022/07/01 04:28:54;;;;;;;4.53;0.90;;;;;;;21.38;50.09;100078.28;4896272;29;20033;-83
2022/07/01 04:31:21;;;;;;;4.22;0.90;;;;;;;21.41;49.41;100080.53;4896851;29;20099;-86
2022/07/01 04:33:48;;;;;;;4.18;1.10;;;;;;;21.28;47.96;100078.13;4896239;29;20032;-83
2022/07/01 04:36:14;;;;;;;2.95;1.02;;;;;;;21.30;47.69;100086.78;4896225;29;20040;-80
2022/07/01 04:38:40;;;;;;;4.78;1.00;;;;;;;21.42;46.79;100090.22;4896953;28;20414;-84
2022/07/01 04:43:49;;;;;;;1.50;0.65;;;;;;;21.63;46.18;100084.13;4896352;28;20562;-79
2022/07/01 04:46:17;;;;;;;3.67;1.25;;;;;;;21.74;45.36;100088.63;4896374;29;20064;-81
2022/07/01 04:48:42;;;;;;;3.42;0.70;;;;;;;21.70;45.31;100092.06;4895654;29;20494;-80
2022/07/01 04:51:08;;;;;;;2.80;0.93;;;;;;;21.59;46.20;100085.69;4895930;29;20043;-81
2022/07/01 04:53:34;;;;;;;2.03;0.90;;;;;;;21.76;45.41;100089.19;4895127;29;20040;-85
2022/07/01 04:55:59;;;;;;;1.83;0.90;;;;;;;21.96;43.50;100089.56;4896330;29;20021;-79
2022/07/01 04:58:25;;;;;;;3.08;1.00;;;;;;;22.12;43.84;100099.50;4895979;29;20040;-79
2022/07/01 05:00:51;;;;;;;4.10;0.77;;;;;;;22.21;43.66;100093.66;4896053;29;20451;-79
2022/07/01 05:03:17;;;;;;;4.10;0.85;;;;;;;22.41;43.70;100094.78;4896083;29;20044;-86
2022/07/01 05:05:44;;;;;;;2.00;0.75;;;;;;;22.59;42.44;100080.97;4896092;29;20040;-80
2022/07/01 05:08:09;;;;;;;3.55;1.25;;;;;;;22.67;41.91;100084.34;4896307;29;20132;-87
2022/07/01 05:10:35;;;;;;;5.45;1.00;;;;;;;22.72;41.62;100090.63;4896114;29;20483;-81
2022/07/01 05:13:00;;;;;;;3.90;1.23;;;;;;;22.85;41.47;100092.94;4896225;29;20043;-77
2022/07/01 05:15:26;;;;;;;3.63;1.00;;;;;;;23.01;41.32;100089.34;4896126;29;20047;-87
2022/07/01 05:23:19;;;;;;;3.05;1.08;;;;;;;23.06;41.62;100096.69;4896659;28;20390;-88
2022/07/01 05:25:44;;;;;;;3.15;1.17;;;;;;;23.21;41.42;100101.44;4896733;29;20036;-79
2022/07/01 05:28:10;;;;;;;6.95;1.15;;;;;;;23.46;41.22;100096.31;4896558;29;20049;-83
2022/07/01 05:30:35;;;;;;;2.40;1.00;;;;;;;23.63;40.93;100092.38;4896505;29;20041;-81
2022/07/01 05:33:04;;;;;;;5.53;1.10;;;;;;;23.87;42.58;100098.28;4896599;29;20095;-83
2022/07/01 05:35:32;;;;;;;5.95;1.70;;;;;;;23.98;42.19;100089.16;4897057;29;20438;-82
2022/07/01 05:37:58;;;;;;;3.70;1.10;;;;;;;24.28;38.50;100098.56;4896286;29;20155;-80
2022/07/01 05:40:25;;;;;;;5.57;1.10;;;;;;;24.49;39.52;100094.91;4896495;29;20433;-82
2022/07/01 05:42:52;;;;;;;2.92;1.27;;;;;;;24.69;42.72;100090.38;4896122;29;20540;-86
2022/07/01 05:45:18;;;;;;;6.90;1.40;;;;;;;24.95;40.03;100102.19;4895961;29;20039;-85
2022/07/01 05:47:43;;;;;;;6.32;0.93;;;;;;;25.16;40.28;100106.56;4896763;29;20032;-81
2022/07/01 05:50:09;;;;;;;5.07;1.42;;;;;;;25.37;40.68;100103.88;4894881;29;20141;-79
2022/07/01 05:52:34;;;;;;;7.45;1.80;;;;;;;25.44;40.15;100093.59;4896316;29;20083;-87
2022/07/01 05:55:00;;;;;;;5.68;1.42;;;;;;;25.63;39.75;100081.16;4896176;29;20037;-80
2022/07/01 05:57:25;;;;;;;5.53;1.80;;;;;;;25.90;38.53;100094.44;4896286;29;20182;-87
2022/07/01 05:59:51;;;;;;;7.78;2.25;;;;;;;26.18;38.39;100097.41;4895983;29;20057;-84
2022/07/01 06:02:16;;;;;;;25.48;1.73;;;;;;;26.29;40.78;100098.19;4896359;29;20479;-81
2022/07/01 06:04:43;;;;;;;23.15;1.55;;;;;;;26.44;41.34;100091.94;4894911;28;20044;-84
2022/07/01 06:07:10;;;;;;;20.90;1.30;;;;;;;26.58;41.92;100087.53;4895308;29;20139;-86
2022/07/01 06:09:36;;;;;;;16.30;1.60;;;;;;;26.71;42.17;100084.22;4896542;29;20025;-82
2022/07/01 06:12:03;;;;;;;29.00;1.13;;;;;;;26.84;42.48;100088.25;4895685;29;20037;-80
2022/07/01 06:14:28;;;;;;;9.20;1.45;;;;;;;26.97;40.91;100096.63;4896104;29;20036;-85
2022/07/01 06:16:54;;;;;;;11.05;1.02;;;;;;;27.17;38.67;100091.06;4894190;28;20099;-83
2022/07/01 06:19:20;;;;;;;13.73;1.38;;;;;;;27.37;38.60;100102.91;4895139;29;20044;-87
2022/07/01 06:21:46;;;;;;;8.70;1.55;;;;;;;27.67;37.29;100102.72;4894071;29;20048;-88
2022/07/01 06:24:12;;;;;;;12.07;1.60;;;;;;;27.91;37.35;100098.13;4895119;28;20029;-87
2022/07/01 06:26:37;;;;;;;3.97;1.20;;;;;;;27.97;36.60;100107.91;4898183;29;20064;-80
2022/07/01 06:29:03;;;;;;;5.43;1.63;;;;;;;28.19;36.11;100105.53;4898343;29;20037;-81
2022/07/01 06:31:28;;;;;;;10.57;1.65;;;;;;;28.86;35.58;100097.44;4898410;29;20457;-82
2022/07/01 06:33:55;;;;;;;6.13;1.17;;;;;;;28.93;34.81;100104.16;4898310;29;20033;-81
2022/07/01 06:36:21;;;;;;;5.05;1.20;;;;;;;29.08;34.53;100112.13;4898074;29;20072;-79
2022/07/01 06:38:46;;;;;;;9.70;1.40;;;;;;;28.85;34.87;100101.25;4898240;29;20048;-82
2022/07/01 06:41:26;;;;;;;3.22;0.93;;;;;;;28.71;35.65;100103.88;4898048;29;20037;-82
2022/07/01 06:43:53;;;;;;;6.63;1.30;;;;;;;29.02;35.71;100102.41;4900848;29;20060;-83
2022/07/01 06:46:19;;;;;;;4.97;1.23;;;;;;;29.20;35.71;100095.28;4899615;29;20374;-87
2022/07/01 06:48:45;;;;;;;4.88;1.27;;;;;;;29.07;36.03;100098.75;4898879;29;20079;-88
2022/07/01 06:51:10;;;;;;;3.72;1.20;;;;;;;29.08;35.90;100108.59;4897855;28;20393;-82
2022/07/01 06:53:36;;;;;;;4.88;1.38;;;;;;;29.37;33.63;100124.84;4893955;29;20041;-89
2022/07/01 06:56:05;;;;;;;1.58;0.70;;;;;;;29.34;33.45;100128.16;4903378;28;20076;-81
2022/07/01 06:58:30;;;;;;;14.65;1.00;;;;;;;30.00;33.49;100128.75;4892128;29;20051;-83
2022/07/01 07:00:56;;;;;;;8.25;1.90;;;;;;;29.48;34.95;100126.31;4897827;29;20033;-84
2022/07/01 07:03:21;;;;;;;8.82;1.25;;;;;;;30.40;33.12;100135.47;4897904;29;20040;-85
2022/07/01 07:05:47;;;;;;;8.63;1.55;;;;;;;30.08;33.70;100136.28;4898369;29;20043;-89
2022/07/01 07:08:13;;;;;;;7.45;1.60;;;;;;;30.00;32.89;100142.44;4894686;29;20044;-84
2022/07/01 07:10:39;;;;;;;4.72;1.63;;;;;;;30.04;32.56;100146.19;4916168;28;20040;-86
2022/07/01 07:13:04;;;;;;;6.45;1.10;;;;;;;30.11;32.56;100143.88;4916686;29;20426;-84
2022/07/01 07:15:30;;;;;;;6.95;0.95;;;;;;;30.17;32.99;100148.16;4916210;29;20103;-88
2022/07/01 07:17:57;;;;;;;7.97;1.10;;;;;;;30.30;31.91;100151.19;4916498;29;20450;-83
2022/07/01 07:20:26;;;;;;;8.45;1.00;;;;;;;30.35;31.52;100148.38;4916175;29;20462;-87
2022/07/01 07:22:53;;;;;;;3.25;0.80;;;;;;;30.23;31.08;100149.69;4916458;29;20402;-81
2022/07/01 07:25:18;;;;;;;8.32;0.90;;;;;;;29.89;31.52;100146.47;4913533;29;20040;-82
2022/07/01 07:27:47;;;;;;;8.52;1.20;;;;;;;30.19;30.51;100153.34;4931835;28;20037;-83
2022/07/01 07:30:50;;;;;;;3.35;0.98;;;;;;;29.97;30.71;100156.69;4924492;29;20064;-84
2022/07/01 07:33:16;;;;;;;5.47;0.60;;;;;;;29.46;30.89;100153.13;4936510;29;20036;-81
2022/07/01 07:35:41;;;;;;;5.63;0.80;;;;;;;29.15;31.43;100149.97;4935168;29;20056;-83
2022/07/01 07:38:07;;;;;;;2.00;0.70;;;;;;;29.16;31.02;100152.44;4933321;29;20024;-83
2022/07/01 07:40:34;;;;;;;6.72;1.00;;;;;;;28.85;32.83;100162.09;4929093;29;20040;-85
2022/07/01 07:42:59;;;;;;;4.40;0.90;;;;;;;28.86;33.38;100155.53;5016050;28;20032;-83
2022/07/01 07:45:25;;;;;;;5.57;0.95;;;;;;;28.93;35.58;100152.47;4924821;29;20040;-86
2022/07/01 07:47:54;;;;;;;7.32;0.85;;;;;;;29.04;36.60;100153.94;4916272;29;20477;-88
2022/07/01 07:50:21;;;;;;;3.38;1.02;;;;;;;28.90;37.47;100158.50;4890885;29;20116;-86
2022/07/01 07:52:46;;;;;;;5.28;1.02;;;;;;;29.01;37.87;100158.06;4879201;29;20064;-88
2022/07/01 07:55:12;;;;;;;4.13;0.77;;;;;;;28.48;39.25;100156.47;4877914;29;20463;-88
2022/07/01 07:57:40;;;;;;;5.53;1.08;;;;;;;28.26;40.31;100150.72;4888962;29;20048;-87
2022/07/01 08:00:24;;;;;;;4.45;1.10;;;;;;;28.07;41.46;100156.88;4907929;29;20048;-84
2022/07/01 08:02:49;;;;;;;12.95;1.40;;;;;;;27.79;42.54;100163.06;4998779;28;20047;-85
2022/07/01 08:05:15;;;;;;;8.07;1.00;;;;;;;27.76;42.87;100166.38;4916968;29;20029;-87
2022/07/01 08:07:42;;;;;;;7.45;1.25;;;;;;;27.65;43.20;100172.97;4899895;28;20041;-85
2022/07/01 08:10:10;;;;;;;5.43;0.98;;;;;;;27.82;42.93;100169.84;4901837;29;20052;-84
2022/07/01 08:12:36;;;;;;;5.95;0.80;;;;;;;27.99;42.96;100176.53;4891053;28;20040;-84
2022/07/01 08:15:02;;;;;;;5.00;1.65;;;;;;;28.17;43.04;100183.25;4893190;28;20091;-88
2022/07/01 08:17:28;;;;;;;5.82;1.52;;;;;;;28.04;43.92;100178.41;4876736;28;20044;-86
2022/07/01 08:19:54;;;;;;;5.50;1.02;;;;;;;28.07;44.02;100189.56;4901769;28;20032;-87
2022/07/01 08:22:20;;;;;;;8.77;2.13;;;;;;;28.16;44.18;100193.31;4917789;28;20041;-83
2022/07/01 08:24:45;;;;;;;6.68;1.13;;;;;;;28.53;43.78;100210.97;4917297;29;20032;-86
2022/07/01 08:27:12;;;;;;;4.15;0.77;;;;;;;29.14;41.89;100203.75;4916897;29;20059;-86
2022/07/01 08:29:38;;;;;;;6.68;1.30;;;;;;;29.20;40.87;100196.28;4905400;29;20115;-86
2022/07/01 08:32:04;;;;;;;6.13;0.90;;;;;;;29.39;40.47;100196.38;4897152;29;20398;-86
2022/07/01 08:34:30;;;;;;;10.95;1.20;;;;;;;29.59;40.07;100196.09;4895350;29;20500;-85
2022/07/01 08:36:55;;;;;;;3.88;1.15;;;;;;;29.67;38.74;100196.22;4896669;29;20044;-83
2022/07/01 08:39:21;;;;;;;7.85;1.13;;;;;;;29.83;38.40;100187.81;4893492;29;20107;-85
2022/07/01 08:41:47;;;;;;;4.15;1.08;;;;;;;29.91;37.88;100185.22;4896002;28;20106;-85
2022/07/01 08:44:13;;;;;;;4.22;0.90;;;;;;;30.29;37.32;100182.41;4896422;28;20043;-84
2022/07/01 08:46:39;;;;;;;6.07;1.23;;;;;;;30.97;36.27;100183.34;4894205;29;20452;-84
2022/07/01 08:49:07;;;;;;;10.10;0.98;;;;;;;31.29;36.22;100165.16;4888555;29;20889;-86
2022/07/01 08:51:34;;;;;;;9.60;1.17;;;;;;;31.39;35.23;100170.41;4887602;29;20468;-87
2022/07/01 08:54:00;;;;;;;12.95;1.02;;;;;;;31.63;34.87;100165.47;4886392;28;20037;-86
2022/07/01 08:56:41;;;;;;;5.57;1.40;;;;;;;31.74;35.17;100181.38;4888616;28;20032;-84
2022/07/01 08:59:10;;;;;;;6.38;1.10;;;;;;;31.91;33.88;100182.63;4889030;28;20103;-82
2022/07/01 09:01:36;;;;;;;12.68;1.30;;;;;;;32.32;31.44;100174.22;4915287;29;20135;-87
2022/07/01 09:04:21;;;;;;;8.75;1.13;;;;;;;32.25;30.98;100178.19;4914747;29;20028;-85
2022/07/01 09:06:48;;;;;;;3.53;0.75;;;;;;;32.44;29.74;100188.97;4915535;28;20386;-84
2022/07/01 09:09:17;;;;;;;9.55;1.05;;;;;;;32.96;28.06;100183.69;4893186;29;20038;-88
2022/07/01 09:11:54;;;;;;;12.60;1.20;;;;;;;33.03;27.73;100187.59;4894541;29;20103;-84
2022/07/01 09:14:29;;;;;;;3.38;1.02;;;;;;;32.71;27.20;100179.75;4905267;28;20045;-84
2022/07/01 09:17:05;;;;;;;3.75;0.73;;;;;;;32.79;27.06;100178.97;4888276;29;20059;-84
2022/07/01 09:19:36;;;;;;;3.97;0.82;;;;;;;33.06;27.11;100183.41;4896231;29;20115;-86
2022/07/01 09:22:04;;;;;;;11.98;1.73;;;;;;;32.79;27.73;100187.19;4913623;29;20040;-90
2022/07/01 09:24:34;;;;;;;6.95;1.10;;;;;;;32.84;28.10;100189.81;4915468;29;20048;-88
2022/07/01 09:27:12;;;;;;;5.88;1.00;;;;;;;33.35;27.29;100189.13;4914953;29;20043;-88
2022/07/01 09:29:43;;;;;;;6.82;1.38;;;;;;;33.64;26.98;100191.31;4903569;29;20072;-83
2022/07/01 09:32:10;;;;;;;6.80;1.33;;;;;;;33.89;27.48;100187.72;4895417;29;20045;-90
2022/07/01 09:34:47;;;;;;;6.78;1.13;;;;;;;34.27;26.17;100194.16;4893957;29;20040;-84
2022/07/01 09:37:20;;;;;;;17.90;1.17;;;;;;;34.25;24.53;100190.13;4896517;29;20055;-83
2022/07/01 09:39:49;;;;;;;8.98;0.93;;;;;;;34.31;24.63;100193.50;4904466;29;20039;-82
2022/07/01 09:42:19;;;;;;;3.78;0.95;;;;;;;33.79;24.45;100193.56;4915666;29;20504;-85
2022/07/01 09:45:07;;;;;;;7.65;1.00;;;;;;;33.56;25.39;100194.81;4911824;29;20032;-83
2022/07/01 09:47:35;;;;;;;6.93;0.93;;;;;;;34.02;25.77;100192.25;4912626;29;20095;-85
2022/07/01 09:50:02;;;;;;;4.38;1.10;;;;;;;34.00;25.41;100196.47;4919022;28;20025;-85
2022/07/01 09:52:28;;;;;;;6.63;0.90;;;;;;;33.80;25.42;100189.69;4904003;29;20040;-86
2022/07/01 09:54:54;;;;;;;2.80;0.90;;;;;;;33.95;24.87;100183.69;4896874;29;20040;-83
2022/07/01 09:57:23;;;;;;;5.43;1.00;;;;;;;33.97;25.24;100175.94;4897714;29;20041;-86
2022/07/01 09:59:49;;;;;;;4.82;0.85;;;;;;;34.09;25.29;100176.06;4905851;29;20059;-86
2022/07/01 10:02:18;;;;;;;8.18;1.00;;;;;;;33.84;25.59;100174.13;4918425;29;20444;-85
2022/07/01 10:04:51;;;;;;;9.93;1.10;;;;;;;33.99;25.65;100179.16;4917784;29;20390;-86
2022/07/01 10:07:49;;;;;;;6.70;1.02;;;;;;;33.95;25.79;100177.38;4917929;28;20140;-86
2022/07/01 10:11:01;;;;;;;7.40;1.15;;;;;;;34.59;25.32;100183.72;4904370;29;20037;-86
2022/07/01 10:13:31;;;;;;;8.70;1.05;;;;;;;34.37;25.78;100178.44;4898866;29;20056;-86
2022/07/01 10:15:57;;;;;;;6.97;1.10;;;;;;;34.67;25.32;100180.16;4898779;29;20056;-86
2022/07/01 10:18:27;;;;;;;1.98;0.90;;;;;;;35.05;25.53;100180.91;4899693;28;20044;-85
2022/07/01 10:20:55;;;;;;;4.60;1.00;;;;;;;34.90;25.47;100187.00;4902426;29;20043;-86
2022/07/01 10:23:22;;;;;;;5.20;1.25;;;;;;;34.39;25.91;100178.91;4898392;29;20029;-86
2022/07/01 10:25:53;;;;;;;11.30;1.10;;;;;;;33.53;26.90;100178.97;4898453;29;20076;-85
2022/07/01 10:28:26;;;;;;;4.82;1.08;;;;;;;32.98;27.74;100179.50;4898182;29;20029;-85
2022/07/01 10:30:55;;;;;;;6.38;0.90;;;;;;;32.81;28.29;100168.47;4915045;29;20477;-83
2022/07/01 10:33:41;;;;;;;5.25;0.90;;;;;;;32.72;28.22;100164.88;4917007;29;20040;-85
2022/07/01 10:36:22;;;;;;;6.35;1.05;;;;;;;32.96;28.20;100165.28;4916041;29;20044;-83
2022/07/01 10:41:31;;;;;;;4.40;1.10;;;;;;;33.98;27.12;100163.78;4918878;28;20068;-85
2022/07/01 10:44:02;;;;;;;8.55;1.33;;;;;;;33.66;27.14;100161.53;4898205;29;20509;-85
2022/07/01 10:46:56;;;;;;;15.05;1.20;;;;;;;34.03;26.59;100155.38;4898020;29;20568;-87
2022/07/01 10:49:37;;;;;;;4.15;1.08;;;;;;;34.16;26.63;100159.91;4902339;29;20101;-88
2022/07/01 10:52:12;;;;;;;6.07;1.17;;;;;;;34.56;25.81;100167.84;4915415;29;20082;-84
2022/07/01 10:54:40;;;;;;;3.40;0.85;;;;;;;35.09;25.63;100165.34;4905336;29;20029;-85
2022/07/01 10:57:15;;;;;;;5.00;1.83;;;;;;;35.25;25.58;100160.06;4905047;29;20036;-86
2022/07/01 10:59:40;;;;;;;4.97;0.80;;;;;;;35.50;25.57;100164.56;4905353;29;20132;-86
2022/07/01 11:02:15;;;;;;;5.85;1.40;;;;;;;35.02;25.38;100159.53;4897890;29;20435;-83
2022/07/01 11:04:41;;;;;;;4.93;1.10;;;;;;;35.20;25.56;100168.56;4897123;29;20059;-85
2022/07/01 11:07:08;;;;;;;6.97;1.10;;;;;;;35.34;24.79;100163.56;4896487;29;20147;-86
2022/07/01 11:09:34;;;;;;;6.40;1.23;;;;;;;34.96;25.12;100160.06;4895825;29;20082;-85
2022/07/01 11:12:00;;;;;;;6.63;0.93;;;;;;;35.15;25.20;100147.50;4898018;29;20363;-84
2022/07/01 11:14:27;;;;;;;10.23;1.02;;;;;;;34.91;25.15;100163.81;4896764;28;20045;-83
2022/07/01 11:16:54;;;;;;;4.03;1.20;;;;;;;34.72;25.32;100153.22;4897872;29;20090;-88
2022/07/01 11:19:19;;;;;;;4.95;1.13;;;;;;;34.67;25.42;100145.16;4924529;28;20044;-88
2022/07/01 11:21:49;;;;;;;7.70;1.17;;;;;;;34.78;25.89;100149.16;4896933;29;20055;-85
2022/07/01 11:24:17;;;;;;;4.68;1.10;;;;;;;34.90;25.92;100140.19;4896116;29;20052;-83
2022/07/01 11:26:43;;;;;;;6.75;1.10;;;;;;;34.76;25.96;100139.63;4897412;28;20386;-84
2022/07/01 11:29:12;;;;;;;3.53;0.90;;;;;;;34.90;25.28;100145.69;4897297;29;20036;-84
2022/07/01 11:31:38;;;;;;;4.57;0.98;;;;;;;34.65;25.06;100149.38;4896212;29;20115;-85
2022/07/01 11:34:04;;;;;;;6.97;1.40;;;;;;;33.67;26.57;100142.00;4897546;29;20072;-86
2022/07/01 11:39:35;;;;;;;10.35;1.40;;;;;;;32.49;28.01;100133.13;4974392;28;20046;-83
2022/07/01 11:42:06;;;;;;;2.65;1.00;;;;;;;32.67;28.22;100134.84;4968378;28;20042;-86
2022/07/01 11:44:36;;;;;;;5.07;1.10;;;;;;;32.97;27.39;100128.47;4974976;28;20057;-87
2022/07/01 11:47:07;;;;;;;5.80;1.00;;;;;;;32.74;27.63;100135.19;4975921;28;20555;-91